Wetterdaten: Woche 16.05.11 - 22.05.11 (KW20)
Datum Zeit Temp. A. Feuchte A. Luftdruck Regen Wind Richtung Taupunkt Windchill Windben
16.05.2011 00:00 9,8 C 78 % 1018,3 hPa 0,0 l/m 4,5 km/h N-NW 6,2 C 9,8 C 15,7 km/h
16.05.2011 01:00 9,8 C 77 % 1018,5 hPa 0,0 l/m 4,9 km/h W-SW 6,0 C 9,8 C 17,3 km/h
16.05.2011 02:00 9,6 C 78 % 1018,7 hPa 0,0 l/m 4,8 km/h NW 5,9 C 9,6 C 16,9 km/h
16.05.2011 03:00 9,3 C 79 % 1018,8 hPa 0,0 l/m 4,3 km/h N-NW 5,8 C 9,3 C 16,1 km/h
16.05.2011 04:00 9,0 C 78 % 1019,1 hPa 0,0 l/m 4,5 km/h NW 5,4 C 9,0 C 15,3 km/h
16.05.2011 05:00 8,8 C 78 % 1019,6 hPa 0,0 l/m 4,9 km/h NW 5,1 C 8,8 C 18,1 km/h
16.05.2011 06:00 9,1 C 78 % 1020,3 hPa 0,0 l/m 4,9 km/h SW 5,4 C 9,1 C 18,1 km/h
16.05.2011 07:00 9,4 C 77 % 1020,9 hPa 0,0 l/m 4,9 km/h NW 5,6 C 9,4 C 16,5 km/h
16.05.2011 08:00 10,5 C 74 % 1021,6 hPa 0,0 l/m 5,9 km/h N-NW 6,2 C 10,5 C 18,5 km/h
16.05.2011 09:00 12,0 C 71 % 1021,6 hPa 0,0 l/m 7,5 km/h N-NW 6,8 C 11,2 C 20,9 km/h
16.05.2011 10:00 14,5 C 62 % 1021,7 hPa 0,0 l/m 8,4 km/h N 7,4 C 13,5 C 20,9 km/h
16.05.2011 11:00 15,5 C 56 % 1021,7 hPa 0,0 l/m 8,5 km/h N-NW 6,8 C 14,4 C 21,7 km/h
16.05.2011 12:00 16,0 C 58 % 1021,5 hPa 0,0 l/m 4,8 km/h N-NW 7,8 C 16,0 C 15,7 km/h
16.05.2011 13:00 18,0 C 47 % 1021,1 hPa 0,0 l/m 7,8 km/h N-NW 6,4 C 17,4 C 20,1 km/h
16.05.2011 14:00 18,8 C 46 % 1020,7 hPa 0,0 l/m 6,3 km/h NW 6,8 C 18,5 C 21,3 km/h
16.05.2011 15:00 18,8 C 48 % 1020,7 hPa 0,0 l/m 4,7 km/h SO 7,4 C 18,8 C 17,3 km/h
16.05.2011 16:00 17,3 C 54 % 1020,9 hPa 0,5 l/m 2,7 km/h W 7,9 C 17,3 C 13,3 km/h
16.05.2011 17:00 15,5 C 62 % 1021,2 hPa 0,0 l/m 1,7 km/h S-SW 8,1 C 15,5 C 10,1 km/h
16.05.2011 18:00 16,2 C 56 % 1021,2 hPa 0,0 l/m 2,8 km/h SW 7,5 C 16,2 C 13,3 km/h
16.05.2011 19:00 14,6 C 60 % 1021,5 hPa 0,0 l/m 2,6 km/h S 6,9 C 14,6 C 13,7 km/h
16.05.2011 20:00 13,4 C 66 % 1021,7 hPa 0,0 l/m 1,1 km/h S 7,2 C 13,4 C 8,4 km/h
16.05.2011 21:00 13,0 C 67 % 1022,1 hPa 0,0 l/m 1,6 km/h SW 7,0 C 13,0 C 9,6 km/h
16.05.2011 22:00 12,9 C 69 % 1022,3 hPa 0,0 l/m 3,0 km/h N-NW 7,4 C 12,9 C 8,9 km/h
16.05.2011 23:00 12,6 C 71 % 1022,4 hPa 0,0 l/m 2,3 km/h N-NW 7,5 C 12,6 C 8,4 km/h
17.05.2011 00:00 12,8 C 69 % 1022,5 hPa 0,0 l/m 1,6 km/h W-SW 7,3 C 12,8 C 6,8 km/h
17.05.2011 01:00 12,9 C 68 % 1022,3 hPa 0,0 l/m 2,6 km/h W-NW 7,1 C 12,9 C 10,1 km/h
17.05.2011 02:00 12,9 C 68 % 1022,0 hPa 0,0 l/m 2,6 km/h S 7,1 C 12,9 C 9,3 km/h
17.05.2011 03:00 12,9 C 68 % 1022,0 hPa 0,0 l/m 2,1 km/h S-SW 7,1 C 12,9 C 10,1 km/h
17.05.2011 04:00 12,9 C 66 % 1022,2 hPa 0,0 l/m 1,7 km/h S 6,8 C 12,9 C 9,3 km/h
17.05.2011 05:00 12,9 C 67 % 1022,2 hPa 0,0 l/m 1,7 km/h S 6,8 C 12,9 C 10,4 km/h
17.05.2011 06:00 13,0 C 66 % 1022,5 hPa 0,0 l/m 1,5 km/h S-SO 6,8 C 13,0 C 11,3 km/h
17.05.2011 07:00 13,3 C 65 % 1022,8 hPa 0,0 l/m 1,3 km/h SW 6,9 C 13,3 C 10,5 km/h
17.05.2011 08:00 13,8 C 64 % 1022,9 hPa 0,0 l/m 1,7 km/h NW 7,1 C 13,8 C 15,7 km/h
17.05.2011 09:00 15,1 C 62 % 1022,8 hPa 0,0 l/m 1,9 km/h O-NO 7,9 C 15,1 C 9,7 km/h
17.05.2011 10:00 18,0 C 56 % 1022,4 hPa 0,0 l/m 3,5 km/h N-NW 8,9 C 18,0 C 13,3 km/h
17.05.2011 11:00 19,6 C 52 % 1022,2 hPa 0,0 l/m 3,5 km/h NW 9,3 C 19,6 C 11,3 km/h
17.05.2011 12:00 20,8 C 49 % 1021,9 hPa 0,0 l/m 3,5 km/h N-NW 9,7 C 20,8 C 10,4 km/h
17.05.2011 13:00 21,1 C 49 % 1021,4 hPa 0,0 l/m 3,5 km/h S-SW 10,0 C 21,1 C 16,1 km/h
17.05.2011 14:00 22,0 C 48 % 1021,0 hPa 0,0 l/m 4,5 km/h W 10,4 C 22,0 C 12,9 km/h
17.05.2011 15:00 21,9 C 48 % 1020,6 hPa 0,0 l/m 2,9 km/h N-NW 10,5 C 21,9 C 9,3 km/h
17.05.2011 16:00 21,3 C 49 % 1020,4 hPa 0,0 l/m 3,3 km/h N-NW 10,2 C 21,3 C 9,7 km/h
17.05.2011 17:00 20,7 C 51 % 1020,1 hPa 0,0 l/m 2,6 km/h N-NW 10,1 C 20,7 C 8,4 km/h
17.05.2011 18:00 20,6 C 49 % 1019,9 hPa 0,0 l/m 2,4 km/h S 9,5 C 20,6 C 9,3 km/h
17.05.2011 19:00 19,7 C 53 % 1020,1 hPa 0,0 l/m 1,2 km/h S-SW 9,7 C 19,7 C 7,6 km/h
17.05.2011 20:00 18,8 C 57 % 1020,3 hPa 0,0 l/m 0,1 km/h N 9,9 C 18,8 C 1,6 km/h
17.05.2011 21:00 17,3 C 62 % 1020,5 hPa 0,0 l/m 0,0 km/h N 9,8 C 17,3 C 0,0 km/h
17.05.2011 22:00 15,3 C 68 % 1020,6 hPa 0,0 l/m 0,1 km/h N 9,4 C 15,3 C 2,8 km/h
17.05.2011 23:00 13,9 C 74 % 1020,9 hPa 0,0 l/m 0,4 km/h N 9,3 C 13,9 C 3,2 km/h
18.05.2011 00:00 13,1 C 76 % 1020,9 hPa 0,0 l/m 0,3 km/h N 8,9 C 13,1 C 3,2 km/h
18.05.2011 01:00 12,5 C 76 % 1020,7 hPa 0,0 l/m 0,3 km/h N 8,4 C 12,5 C 3,2 km/h
18.05.2011 02:00 11,4 C 79 % 1020,7 hPa 0,0 l/m 0,1 km/h N 7,9 C 11,4 C 2,0 km/h
18.05.2011 03:00 10,9 C 81 % 1020,8 hPa 0,0 l/m 0,1 km/h N 7,6 C 10,9 C 2,0 km/h
18.05.2011 04:00 10,3 C 82 % 1020,8 hPa 0,0 l/m 0,2 km/h N 7,3 C 10,3 C 2,8 km/h
18.05.2011 05:00 9,9 C 82 % 1021,0 hPa 0,0 l/m 0,1 km/h N 7,0 C 9,9 C 2,0 km/h
18.05.2011 06:00 10,3 C 82 % 1021,0 hPa 0,0 l/m 0,2 km/h N 7,4 C 10,3 C 3,2 km/h
18.05.2011 07:00 12,1 C 82 % 1021,0 hPa 0,0 l/m 0,1 km/h N 9,1 C 12,1 C 1,2 km/h
18.05.2011 08:00 13,9 C 81 % 1021,2 hPa 0,0 l/m 0,0 km/h N 10,6 C 13,9 C 0,8 km/h
18.05.2011 09:00 16,3 C 74 % 1021,2 hPa 0,0 l/m 0,1 km/h N 11,7 C 16,3 C 1,6 km/h
18.05.2011 10:00 20,0 C 63 % 1020,8 hPa 0,0 l/m 0,3 km/h N 12,7 C 20,0 C 2,8 km/h
18.05.2011 11:00 23,6 C 49 % 1020,5 hPa 0,0 l/m 0,8 km/h N 12,2 C 23,6 C 5,6 km/h
18.05.2011 12:00 25,5 C 45 % 1020,0 hPa 0,0 l/m 0,9 km/h O-SO 12,5 C 25,5 C 8,0 km/h
18.05.2011 13:00 25,1 C 44 % 1019,7 hPa 0,0 l/m 1,5 km/h O 12,0 C 25,1 C 7,2 km/h
18.05.2011 14:00 25,0 C 45 % 1019,4 hPa 0,0 l/m 1,2 km/h O 12,3 C 25,0 C 5,6 km/h
18.05.2011 15:00 26,0 C 44 % 1018,8 hPa 0,0 l/m 1,8 km/h O 12,6 C 26,0 C 9,6 km/h
18.05.2011 16:00 25,2 C 46 % 1018,2 hPa 0,0 l/m 2,3 km/h O 12,6 C 25,2 C 7,6 km/h
18.05.2011 17:00 25,9 C 43 % 1017,7 hPa 0,0 l/m 1,3 km/h N 12,5 C 25,9 C 7,2 km/h
18.05.2011 18:00 25,5 C 43 % 1017,3 hPa 0,0 l/m 0,9 km/h N 12,0 C 25,5 C 6,0 km/h
18.05.2011 19:00 23,4 C 49 % 1017,3 hPa 0,0 l/m 0,3 km/h N 12,1 C 23,4 C 3,6 km/h
18.05.2011 20:00 21,5 C 54 % 1017,6 hPa 0,0 l/m 0,1 km/h N 11,7 C 21,5 C 1,6 km/h
18.05.2011 21:00 19,8 C 58 % 1018,2 hPa 0,0 l/m 0,0 km/h N 11,3 C 19,8 C 0,4 km/h
18.05.2011 22:00 17,9 C 65 % 1018,1 hPa 0,0 l/m 0,1 km/h N 11,2 C 17,9 C 2,4 km/h
18.05.2011 23:00 17,0 C 67 % 1017,8 hPa 0,0 l/m 0,1 km/h N 10,8 C 17,0 C 2,0 km/h
19.05.2011 00:00 15,4 C 71 % 1017,6 hPa 0,0 l/m 0,0 km/h N 10,1 C 15,4 C 0,0 km/h
19.05.2011 01:00 13,9 C 76 % 1017,3 hPa 0,0 l/m 0,0 km/h N 9,7 C 13,9 C 0,0 km/h
19.05.2011 02:00 13,8 C 78 % 1017,1 hPa 0,0 l/m 0,5 km/h W 9,9 C 13,8 C 4,4 km/h
19.05.2011 03:00 15,2 C 72 % 1016,7 hPa 0,0 l/m 0,5 km/h N 10,2 C 15,2 C 6,8 km/h
19.05.2011 04:00 14,3 C 73 % 1016,6 hPa 0,0 l/m 0,0 km/h N 9,5 C 14,3 C 1,2 km/h
19.05.2011 05:00 13,2 C 78 % 1016,8 hPa 0,0 l/m 0,0 km/h N 9,5 C 13,2 C 0,0 km/h
19.05.2011 06:00 14,4 C 77 % 1016,8 hPa 0,0 l/m 0,4 km/h N 10,5 C 14,4 C 5,6 km/h
19.05.2011 07:00 16,0 C 73 % 1016,9 hPa 0,0 l/m 0,6 km/h S 11,1 C 16,0 C 6,8 km/h
19.05.2011 08:00 17,5 C 69 % 1017,1 hPa 0,0 l/m 1,9 km/h S 11,8 C 17,5 C 12,5 km/h
19.05.2011 09:00 19,2 C 65 % 1017,3 hPa 0,0 l/m 1,1 km/h S-SO 12,4 C 19,2 C 7,6 km/h
19.05.2011 10:00 23,4 C 51 % 1017,1 hPa 0,0 l/m 1,6 km/h N-NO 12,7 C 23,4 C 10,1 km/h
19.05.2011 11:00 27,3 C 40 % 1016,8 hPa 0,0 l/m 1,5 km/h SW 12,3 C 27,3 C 10,9 km/h
19.05.2011 12:00 29,4 C 32 % 1016,3 hPa 0,0 l/m 2,0 km/h SW 11,1 C 29,4 C 14,5 km/h
19.05.2011 13:00 30,2 C 30 % 1016,2 hPa 0,0 l/m 2,9 km/h O-SO 10,8 C 30,2 C 15,7 km/h
19.05.2011 14:00 30,5 C 30 % 1016,0 hPa 0,0 l/m 3,4 km/h SO 11,1 C 30,5 C 15,3 km/h
19.05.2011 15:00 31,0 C 29 % 1015,5 hPa 0,0 l/m 2,0 km/h SW 10,9 C 31,0 C 11,6 km/h
19.05.2011 16:00 30,6 C 29 % 1015,3 hPa 0,0 l/m 3,1 km/h O-SO 10,4 C 30,6 C 18,1 km/h
19.05.2011 17:00 29,8 C 30 % 1015,1 hPa 0,0 l/m 2,1 km/h O-NO 10,3 C 29,8 C 16,9 km/h
19.05.2011 18:00 26,8 C 35 % 1015,0 hPa 0,0 l/m 0,8 km/h N 10,0 C 26,8 C 8,8 km/h
19.05.2011 19:00 24,8 C 39 % 1015,2 hPa 0,0 l/m 0,3 km/h N 9,7 C 24,8 C 6,0 km/h
19.05.2011 20:00 23,0 C 44 % 1015,5 hPa 0,0 l/m 0,3 km/h N 10,1 C 23,0 C 3,2 km/h
19.05.2011 21:00 19,6 C 58 % 1016,0 hPa 0,0 l/m 0,0 km/h N 11,1 C 19,6 C 0,4 km/h
19.05.2011 22:00 17,9 C 62 % 1016,4 hPa 0,0 l/m 0,4 km/h S-SO 10,5 C 17,9 C 4,8 km/h
19.05.2011 23:00 18,9 C 59 % 1016,2 hPa 0,0 l/m 0,4 km/h N 10,7 C 18,9 C 4,0 km/h
20.05.2011 00:00 17,0 C 66 % 1016,4 hPa 0,0 l/m 0,1 km/h N 10,6 C 17,0 C 0,4 km/h
20.05.2011 01:00 15,4 C 71 % 1016,6 hPa 0,0 l/m 0,0 km/h N 10,1 C 15,4 C 0,4 km/h
20.05.2011 02:00 14,2 C 74 % 1016,6 hPa 0,0 l/m 0,0 km/h N 9,7 C 14,2 C 0,4 km/h
20.05.2011 03:00 13,1 C 77 % 1016,7 hPa 0,0 l/m 0,0 km/h N 9,2 C 13,1 C 0,0 km/h
20.05.2011 04:00 12,3 C 80 % 1016,7 hPa 0,0 l/m 0,0 km/h N 8,9 C 12,3 C 0,0 km/h
20.05.2011 05:00 11,5 C 82 % 1017,3 hPa 0,0 l/m 0,1 km/h N 8,5 C 11,5 C 2,4 km/h
20.05.2011 06:00 12,5 C 82 % 1017,7 hPa 0,0 l/m 0,0 km/h N 9,5 C 12,5 C 2,0 km/h
20.05.2011 07:00 16,1 C 73 % 1017,8 hPa 0,0 l/m 0,5 km/h N 11,2 C 16,1 C 5,6 km/h
20.05.2011 08:00 18,0 C 68 % 1018,2 hPa 0,0 l/m 0,0 km/h N 12,0 C 18,0 C 1,2 km/h
20.05.2011 09:00 20,1 C 66 % 1018,2 hPa 0,0 l/m 0,3 km/h N 13,4 C 20,1 C 2,4 km/h
20.05.2011 10:00 23,1 C 54 % 1018,3 hPa 0,0 l/m 0,7 km/h N 13,3 C 23,1 C 4,4 km/h
20.05.2011 11:00 25,9 C 48 % 1018,2 hPa 0,0 l/m 0,7 km/h O-SO 14,1 C 25,9 C 4,0 km/h
20.05.2011 12:00 27,4 C 45 % 1017,9 hPa 0,0 l/m 1,4 km/h O 14,3 C 27,4 C 7,6 km/h
20.05.2011 13:00 27,3 C 41 % 1017,9 hPa 0,0 l/m 1,1 km/h SW 12,8 C 27,3 C 7,6 km/h
20.05.2011 14:00 26,6 C 43 % 1017,5 hPa 0,0 l/m 2,0 km/h O-SO 12,8 C 26,6 C 10,9 km/h
20.05.2011 15:00 26,6 C 43 % 1017,0 hPa 0,0 l/m 1,0 km/h N-NO 12,8 C 26,6 C 6,4 km/h
20.05.2011 16:00 27,0 C 40 % 1016,2 hPa 0,0 l/m 2,0 km/h SW 12,3 C 27,0 C 7,2 km/h
20.05.2011 17:00 26,7 C 43 % 1016,5 hPa 0,0 l/m 1,1 km/h S 13,1 C 26,7 C 6,4 km/h
20.05.2011 18:00 26,9 C 42 % 1016,2 hPa 0,0 l/m 0,4 km/h N 12,9 C 26,9 C 4,8 km/h
20.05.2011 19:00 25,4 C 48 % 1016,1 hPa 0,0 l/m 0,0 km/h N 13,3 C 25,4 C 0,8 km/h
20.05.2011 20:00 22,5 C 57 % 1016,5 hPa 0,0 l/m 0,0 km/h N 13,5 C 22,5 C 0,4 km/h
20.05.2011 21:00 19,7 C 66 % 1017,3 hPa 0,0 l/m 0,3 km/h N 13,1 C 19,7 C 3,6 km/h
20.05.2011 22:00 18,2 C 70 % 1017,2 hPa 0,0 l/m 0,1 km/h N 12,5 C 18,2 C 2,4 km/h
20.05.2011 23:00 17,4 C 73 % 1017,3 hPa 0,0 l/m 0,2 km/h N 12,5 C 17,4 C 4,8 km/h
21.05.2011 00:00 16,6 C 75 % 1017,7 hPa 0,0 l/m 0,2 km/h N 12,0 C 16,6 C 3,2 km/h
21.05.2011 01:00 16,0 C 76 % 1017,9 hPa 0,0 l/m 0,2 km/h N 11,7 C 16,0 C 2,4 km/h
21.05.2011 02:00 15,4 C 76 % 1018,1 hPa 0,0 l/m 0,2 km/h N 11,1 C 15,4 C 3,2 km/h
21.05.2011 03:00 16,2 C 71 % 1018,3 hPa 0,0 l/m 0,1 km/h N 10,9 C 16,2 C 2,4 km/h
21.05.2011 04:00 15,6 C 71 % 1018,6 hPa 0,0 l/m 0,0 km/h N 10,4 C 15,6 C 0,8 km/h
21.05.2011 05:00 15,1 C 72 % 1018,9 hPa 0,0 l/m 0,3 km/h N 10,0 C 15,1 C 2,8 km/h
21.05.2011 06:00 16,3 C 67 % 1019,4 hPa 0,0 l/m 0,4 km/h W-NW 10,2 C 16,3 C 3,6 km/h
21.05.2011 07:00 18,1 C 63 % 1019,6 hPa 0,0 l/m 1,2 km/h S-SO 11,0 C 18,1 C 7,6 km/h
21.05.2011 08:00 19,8 C 59 % 1019,8 hPa 0,0 l/m 2,7 km/h S-SO 11,6 C 19,8 C 12,1 km/h
21.05.2011 09:00 21,5 C 56 % 1020,0 hPa 0,0 l/m 2,4 km/h NW 12,4 C 21,5 C 10,1 km/h
21.05.2011 10:00 24,4 C 49 % 1020,3 hPa 0,0 l/m 3,8 km/h N-NW 12,9 C 24,4 C 12,1 km/h
21.05.2011 11:00 27,6 C 41 % 1020,1 hPa 0,0 l/m 3,3 km/h N-NW 13,2 C 27,6 C 11,3 km/h
21.05.2011 12:00 29,5 C 38 % 1019,6 hPa 0,0 l/m 2,3 km/h N-NO 13,6 C 29,5 C 8,8 km/h
21.05.2011 13:00 31,6 C 33 % 1018,8 hPa 0,0 l/m 1,8 km/h N-NO 13,0 C 31,6 C 6,8 km/h
21.05.2011 14:00 31,0 C 35 % 1018,3 hPa 0,0 l/m 0,9 km/h N 13,5 C 31,0 C 6,0 km/h
21.05.2011 15:00 29,0 C 38 % 1018,1 hPa 0,0 l/m 0,4 km/h S-SW 13,1 C 29,0 C 3,2 km/h
21.05.2011 16:00 23,1 C 53 % 1018,5 hPa 0,0 l/m 6,4 km/h S-SO 12,8 C 22,8 C 21,7 km/h
21.05.2011 17:00 20,8 C 62 % 1018,3 hPa 0,0 l/m 1,1 km/h S-SW 13,1 C 20,8 C 6,0 km/h
21.05.2011 18:00 20,8 C 61 % 1018,2 hPa 0,0 l/m 0,7 km/h SW 12,9 C 20,8 C 5,2 km/h
21.05.2011 19:00 20,8 C 68 % 1018,7 hPa 0,0 l/m 0,9 km/h N-NW 14,6 C 20,8 C 4,0 km/h
21.05.2011 20:00 20,0 C 67 % 1019,5 hPa 0,0 l/m 2,0 km/h N-NW 13,7 C 20,0 C 6,8 km/h
21.05.2011 21:00 19,1 C 68 % 1019,6 hPa 0,0 l/m 0,1 km/h N 13,1 C 19,1 C 2,0 km/h
21.05.2011 22:00 17,9 C 73 % 1019,2 hPa 0,0 l/m 0,1 km/h N 12,9 C 17,9 C 2,4 km/h
21.05.2011 23:00 16,8 C 76 % 1019,2 hPa 0,0 l/m 0,0 km/h N 12,4 C 16,8 C 1,6 km/h
22.05.2011 00:00 15,6 C 78 % 1019,2 hPa 0,0 l/m 0,0 km/h N 11,7 C 15,6 C 0,0 km/h
22.05.2011 01:00 14,5 C 80 % 1018,9 hPa 0,0 l/m 0,1 km/h N 11,2 C 14,5 C 1,6 km/h
22.05.2011 02:00 14,0 C 82 % 1018,7 hPa 0,0 l/m 0,0 km/h N 10,9 C 14,0 C 1,6 km/h
22.05.2011 03:00 13,5 C 82 % 1018,8 hPa 0,0 l/m 0,0 km/h N 10,4 C 13,5 C 0,4 km/h
22.05.2011 04:00 12,8 C 82 % 1018,7 hPa 0,0 l/m 0,0 km/h N 9,8 C 12,8 C 0,8 km/h
22.05.2011 05:00 12,4 C 82 % 1018,8 hPa 0,0 l/m 0,0 km/h N 9,4 C 12,4 C 0,8 km/h
22.05.2011 06:00 12,4 C 82 % 1018,9 hPa 0,0 l/m 0,0 km/h N 9,4 C 12,4 C 0,4 km/h
22.05.2011 07:00 13,5 C 81 % 1018,9 hPa 0,0 l/m 0,0 km/h N 10,3 C 13,5 C 0,8 km/h
22.05.2011 08:00 15,5 C 82 % 1019,0 hPa 0,0 l/m 0,0 km/h N 12,3 C 15,5 C 1,2 km/h
22.05.2011 09:00 17,6 C 78 % 1018,8 hPa 0,0 l/m 0,4 km/h N 13,7 C 17,6 C 4,0 km/h
22.05.2011 10:00 21,6 C 65 % 1018,4 hPa 0,0 l/m 0,6 km/h N 14,7 C 21,6 C 4,8 km/h
22.05.2011 11:00 25,3 C 53 % 1018,0 hPa 0,0 l/m 0,6 km/h N 15,1 C 25,3 C 4,4 km/h
22.05.2011 12:00 27,3 C 46 % 1017,7 hPa 0,0 l/m 0,9 km/h O 14,7 C 27,3 C 6,0 km/h
22.05.2011 13:00 28,4 C 42 % 1017,2 hPa 0,0 l/m 1,0 km/h O-NO 14,2 C 28,4 C 5,2 km/h
22.05.2011 14:00 28,8 C 43 % 1016,5 hPa 0,0 l/m 1,7 km/h O 15,0 C 28,8 C 6,4 km/h
22.05.2011 15:00 28,7 C 43 % 1015,9 hPa 0,0 l/m 1,3 km/h O 14,8 C 28,7 C 7,2 km/h
22.05.2011 16:00 29,7 C 38 % 1015,3 hPa 0,0 l/m 1,1 km/h N-NO 13,6 C 29,7 C 6,4 km/h
22.05.2011 17:00 30,5 C 35 % 1015,0 hPa 0,0 l/m 1,1 km/h SO 13,3 C 30,5 C 8,1 km/h
22.05.2011 18:00 29,4 C 38 % 1015,3 hPa 0,0 l/m 0,9 km/h O 13,4 C 29,4 C 6,8 km/h
22.05.2011 19:00 27,2 C 42 % 1015,5 hPa 0,0 l/m 0,6 km/h N 13,1 C 27,2 C 6,8 km/h
22.05.2011 20:00 25,3 C 48 % 1016,0 hPa 0,0 l/m 0,1 km/h N 13,6 C 25,3 C 2,8 km/h
22.05.2011 21:00 22,6 C 57 % 1016,5 hPa 0,0 l/m 0,1 km/h N 13,7 C 22,6 C 2,0 km/h
22.05.2011 22:00 20,5 C 63 % 1017,0 hPa 0,0 l/m 0,0 km/h N 13,2 C 20,5 C 1,2 km/h
22.05.2011 23:00 19,2 C 66 % 1017,6 hPa 0,0 l/m 0,9 km/h W-SW 12,7 C 19,2 C 7,7 km/h
Min-Datum _ 16.05.11 19.05.11 19.05.11 - 17.05.11 - 16.05.11 16.05.11 17.05.11
_ Min-Zeit 05:45 15:45 17:30 - 20:30 - 05:15 05:15 21:00
Minimum _ 8,7 C 28 % 1014,9 hPa - 0,0 km/h - 5,0 C 8,8 C 0,0 km/h
Max-Datum _ 21.05.11 18.05.11 17.05.11 16.05.11 16.05.11 - 22.05.11 21.05.11 19.05.11
_ Max-Zeit 14:00 08:00 08:15 16:45 13:00 - 11:00 13:45 17:15
Maximum _ 32,6 C 85 % 1023,0 hPa 0,5 l/m 10,5 km/h
N-NW
- 15,6 C 32,4 C 30,6 km/h
SW
Durchschnitt _ 18,9 C 61 % 1018,8 hPa #0,5 l/m 1,5 km/h N-NW 10,5 C 18,9 C 7,1 km/h